Time;durP1;ratioP1;P1;durP2;ratioP2;P2;SDS_P1;SDS_P2;PMS_P1;PMS_P2;Temp;Humidity;BMP_temperature;BMP_pressure;BME280_temperature;BME280_humidity;BME280_pressure;Samples;Min_cycle;Max_cycle;Signal;HPM_P1;HPM_P2
2021/05/12 00:00:26;;;;;;;7.65;6.53;;;;;;;15.15;100.00;99721.56;5051634;28;20053;-70
2021/05/12 00:02:54;;;;;;;8.90;6.95;;;;;;;15.09;100.00;99723.94;5040875;28;20219;-71
2021/05/12 00:05:22;;;;;;;7.32;6.63;;;;;;;15.15;100.00;99724.19;5036042;28;20498;-73
2021/05/12 00:07:50;;;;;;;7.35;6.65;;;;;;;15.12;100.00;99753.63;5041735;28;20080;-73
2021/05/12 00:10:19;;;;;;;8.52;6.88;;;;;;;15.13;100.00;99754.47;5020855;28;20119;-72
2021/05/12 00:12:46;;;;;;;8.00;6.13;;;;;;;15.08;100.00;99762.00;5059849;28;20159;-71
2021/05/12 00:15:16;;;;;;;7.13;6.15;;;;;;;15.01;100.00;99761.75;5036816;28;20272;-75
2021/05/12 00:17:46;;;;;;;7.55;6.50;;;;;;;15.05;100.00;99772.91;5026878;28;20101;-69
2021/05/12 00:20:19;;;;;;;8.18;7.43;;;;;;;15.14;100.00;99775.56;5055980;28;20139;-70
2021/05/12 00:22:50;;;;;;;9.77;8.57;;;;;;;15.18;100.00;99784.91;5049791;28;20127;-75
2021/05/12 00:25:17;;;;;;;13.85;12.18;;;;;;;15.19;100.00;99785.75;5037102;28;20051;-74
2021/05/12 00:27:44;;;;;;;14.18;12.82;;;;;;;15.19;100.00;99780.44;5035034;28;20068;-74
2021/05/12 00:30:15;;;;;;;15.23;13.82;;;;;;;15.10;100.00;99766.22;5055534;28;20049;-74
2021/05/12 00:32:42;;;;;;;15.48;13.73;;;;;;;14.87;100.00;99770.97;5030656;28;20057;-76
2021/05/12 00:35:10;;;;;;;15.73;14.13;;;;;;;14.97;100.00;99775.41;5014735;28;20137;-76
2021/05/12 00:37:38;;;;;;;17.65;15.75;;;;;;;14.92;100.00;99778.50;5031379;28;20137;-74
2021/05/12 00:40:06;;;;;;;16.67;14.95;;;;;;;14.64;100.00;99780.97;5039568;28;20059;-74
2021/05/12 00:42:33;;;;;;;17.15;14.27;;;;;;;14.73;100.00;99779.31;5050895;28;20135;-75
2021/05/12 00:45:03;;;;;;;14.48;12.98;;;;;;;14.77;100.00;99787.81;5034579;28;20173;-75
2021/05/12 00:47:31;;;;;;;18.30;14.60;;;;;;;14.72;100.00;99792.69;5031877;28;20059;-75
2021/05/12 00:49:59;;;;;;;19.08;15.73;;;;;;;14.80;100.00;99790.19;5034143;28;20045;-74
2021/05/12 00:52:27;;;;;;;20.98;17.15;;;;;;;14.73;100.00;99794.38;5039798;28;20048;-75
2021/05/12 00:54:54;;;;;;;19.02;16.60;;;;;;;14.59;100.00;99803.53;5038553;28;20817;-74
2021/05/12 00:57:22;;;;;;;22.63;16.92;;;;;;;14.35;100.00;99801.22;5021766;28;20136;-75
2021/05/12 00:59:52;;;;;;;25.13;18.45;;;;;;;14.46;100.00;99803.75;5022130;28;20069;-74
2021/05/12 01:02:20;;;;;;;18.73;16.58;;;;;;;14.64;100.00;99796.88;5042934;28;20088;-73
2021/05/12 01:04:48;;;;;;;15.23;13.30;;;;;;;14.69;100.00;99817.66;5018084;28;20131;-75
2021/05/12 01:07:15;;;;;;;24.80;13.15;;;;;;;14.64;100.00;99823.34;5053174;28;20053;-75
2021/05/12 01:09:42;;;;;;;18.27;12.18;;;;;;;14.71;100.00;99820.16;5052736;28;20140;-73
2021/05/12 01:12:10;;;;;;;17.08;12.55;;;;;;;14.68;100.00;99822.13;5039712;28;20147;-70
2021/05/12 01:14:37;;;;;;;15.80;12.20;;;;;;;14.42;100.00;99839.44;5044383;28;20524;-69
2021/05/12 01:17:05;;;;;;;17.13;12.85;;;;;;;14.44;100.00;99838.31;5038801;28;20049;-71
2021/05/12 01:19:34;;;;;;;17.80;13.02;;;;;;;14.43;99.55;99833.16;5052839;28;20110;-73
2021/05/12 01:22:01;;;;;;;17.95;13.10;;;;;;;14.34;99.89;99844.56;5055094;28;20565;-71
2021/05/12 01:24:28;;;;;;;17.98;13.60;;;;;;;14.32;100.00;99839.41;5035294;28;20091;-70
2021/05/12 01:26:56;;;;;;;15.93;13.85;;;;;;;14.18;100.00;99840.59;5036437;28;20037;-71
2021/05/12 01:29:24;;;;;;;21.27;14.85;;;;;;;14.23;100.00;99848.16;5035939;28;20128;-72
2021/05/12 01:31:52;;;;;;;19.00;12.68;;;;;;;14.30;100.00;99849.28;5036377;28;20042;-74
2021/05/12 01:34:20;;;;;;;16.15;12.38;;;;;;;14.41;99.09;99857.13;5018581;28;20056;-74
2021/05/12 01:36:48;;;;;;;14.85;9.50;;;;;;;14.33;98.22;99869.34;5035704;28;20147;-71
2021/05/12 01:39:17;;;;;;;10.00;8.00;;;;;;;14.28;97.83;99864.47;5015729;28;20144;-71
2021/05/12 01:41:45;;;;;;;13.43;7.57;;;;;;;14.33;97.50;99864.91;5029146;28;20076;-69
2021/05/12 01:44:13;;;;;;;13.27;7.97;;;;;;;14.12;97.54;99856.16;5034035;28;20074;-71
2021/05/12 01:46:42;;;;;;;10.25;7.40;;;;;;;14.04;98.15;99858.63;5029439;28;20051;-75
2021/05/12 01:49:10;;;;;;;10.48;7.07;;;;;;;14.10;97.05;99866.88;5004548;28;20059;-76
2021/05/12 01:51:38;;;;;;;11.18;7.57;;;;;;;14.11;96.17;99883.59;5049157;28;20048;-76
2021/05/12 01:54:07;;;;;;;8.98;7.43;;;;;;;14.08;95.98;99883.84;5051641;28;20060;-76
2021/05/12 01:56:36;;;;;;;13.23;8.10;;;;;;;14.15;95.32;99877.06;5019352;28;20095;-74
2021/05/12 01:59:05;;;;;;;11.10;7.78;;;;;;;13.94;95.64;99872.63;5004084;28;20143;-76
2021/05/12 02:01:32;;;;;;;9.55;7.40;;;;;;;13.95;95.89;99862.88;5019271;28;20051;-73
2021/05/12 02:04:05;;;;;;;10.25;7.07;;;;;;;13.89;95.36;99847.53;5042987;28;20041;-74
2021/05/12 02:06:32;;;;;;;8.38;6.53;;;;;;;13.97;95.33;99852.19;5047274;28;21399;-73
2021/05/12 02:09:01;;;;;;;12.18;8.13;;;;;;;13.85;95.19;99859.34;5023363;28;20052;-75
2021/05/12 02:11:28;;;;;;;9.65;7.32;;;;;;;13.78;95.73;99863.47;5017176;28;20056;-74
2021/05/12 02:13:55;;;;;;;12.07;7.32;;;;;;;13.84;95.62;99860.31;5008499;28;20704;-75
2021/05/12 02:16:22;;;;;;;13.52;8.30;;;;;;;13.67;95.99;99857.28;5054944;28;20493;-75
2021/05/12 02:18:52;;;;;;;10.40;8.05;;;;;;;13.74;95.62;99857.63;5052296;28;20049;-75
2021/05/12 02:21:19;;;;;;;12.70;8.18;;;;;;;13.68;95.38;99855.47;5033000;28;21060;-75
2021/05/12 02:23:46;;;;;;;13.27;8.57;;;;;;;13.71;95.20;99864.97;5032735;28;20264;-75
2021/05/12 02:26:13;;;;;;;10.85;9.23;;;;;;;13.76;95.67;99863.59;5045652;28;20099;-74
2021/05/12 02:28:41;;;;;;;13.05;8.50;;;;;;;13.80;94.83;99869.47;5038561;28;20056;-75
2021/05/12 02:31:08;;;;;;;9.90;7.60;;;;;;;13.70;94.13;99865.94;5017806;28;20059;-75
2021/05/12 02:33:35;;;;;;;8.85;7.82;;;;;;;13.61;94.80;99859.63;5008278;28;20057;-75
2021/05/12 02:36:02;;;;;;;16.23;9.73;;;;;;;13.64;94.16;99859.34;5036584;28;20071;-76
2021/05/12 02:38:30;;;;;;;13.40;9.70;;;;;;;13.52;94.66;99861.22;5038064;28;20348;-74
2021/05/12 02:40:57;;;;;;;11.82;8.82;;;;;;;13.60;95.14;99860.59;5025970;28;20132;-78
2021/05/12 02:43:24;;;;;;;10.95;8.40;;;;;;;13.62;94.41;99861.28;5030805;28;20144;-74
2021/05/12 02:45:51;;;;;;;12.73;8.88;;;;;;;13.63;94.45;99873.53;5028448;28;20136;-73
2021/05/12 02:48:19;;;;;;;12.68;8.07;;;;;;;13.61;94.19;99863.09;5052229;28;20055;-73
2021/05/12 02:50:46;;;;;;;10.25;6.68;;;;;;;13.54;94.90;99869.00;5026855;28;20367;-73
2021/05/12 02:53:13;;;;;;;13.30;7.60;;;;;;;13.60;94.48;99877.28;5054946;28;20132;-73
2021/05/12 02:55:41;;;;;;;10.80;7.50;;;;;;;13.57;94.17;99882.00;5033312;28;20079;-71
2021/05/12 02:58:08;;;;;;;9.73;7.90;;;;;;;13.52;94.17;99873.59;5022411;28;20048;-72
2021/05/12 03:00:37;;;;;;;13.60;8.43;;;;;;;13.46;94.81;99872.28;5035087;28;20078;-71
2021/05/12 03:03:05;;;;;;;12.27;8.75;;;;;;;13.44;94.74;99874.22;5022746;28;20084;-74
2021/05/12 03:05:32;;;;;;;12.48;8.48;;;;;;;13.45;94.63;99869.78;5052078;28;20132;-75
2021/05/12 03:08:00;;;;;;;10.05;7.55;;;;;;;13.49;94.63;99876.50;5033474;28;20128;-72
2021/05/12 03:10:31;;;;;;;9.50;7.13;;;;;;;13.43;95.40;99877.84;5055049;28;20061;-74
2021/05/12 03:12:58;;;;;;;15.02;7.68;;;;;;;13.47;94.91;99878.44;5032013;28;20037;-75
2021/05/12 03:15:26;;;;;;;13.20;7.95;;;;;;;13.42;95.16;99874.38;5028147;28;20063;-74
2021/05/12 03:17:55;;;;;;;13.68;8.00;;;;;;;13.50;94.64;99873.72;5018225;28;20054;-76
2021/05/12 03:20:24;;;;;;;9.40;6.82;;;;;;;13.45;95.03;99870.63;5052155;28;20727;-76
2021/05/12 03:22:51;;;;;;;8.57;5.95;;;;;;;13.34;95.83;99865.41;5034621;28;20045;-75
2021/05/12 03:25:19;;;;;;;10.13;6.43;;;;;;;13.45;94.99;99872.44;5017273;28;20057;-75
2021/05/12 03:27:46;;;;;;;11.25;7.28;;;;;;;13.32;95.64;99872.59;5031731;28;20651;-76
2021/05/12 03:30:19;;;;;;;8.57;6.30;;;;;;;13.46;94.91;99880.22;5045465;28;20045;-76
2021/05/12 03:32:48;;;;;;;13.15;6.82;;;;;;;13.34;95.06;99875.97;5038382;28;20655;-73
2021/05/12 03:35:16;;;;;;;16.70;7.15;;;;;;;13.23;95.69;99876.81;5045741;28;20497;-72
2021/05/12 03:37:43;;;;;;;8.70;6.13;;;;;;;13.18;96.07;99874.53;5001513;28;20460;-74
2021/05/12 03:40:11;;;;;;;8.63;6.07;;;;;;;13.19;95.79;99872.72;5032370;28;20060;-75
2021/05/12 03:42:38;;;;;;;12.93;5.78;;;;;;;13.28;95.12;99881.75;5030212;28;20041;-75
2021/05/12 03:45:07;;;;;;;10.48;4.90;;;;;;;13.27;94.03;99886.19;5039490;28;20057;-76
2021/05/12 03:47:34;;;;;;;8.82;4.90;;;;;;;13.28;94.10;99890.50;4999093;28;20103;-76
2021/05/12 03:50:06;;;;;;;7.68;5.15;;;;;;;13.42;92.76;99889.41;5028525;28;20045;-76
2021/05/12 03:52:33;;;;;;;7.78;4.38;;;;;;;13.26;93.84;99892.44;5044401;28;20045;-77
2021/05/12 03:55:00;;;;;;;7.85;5.07;;;;;;;13.18;94.29;99889.56;5036062;28;20049;-76
2021/05/12 03:57:27;;;;;;;9.82;5.32;;;;;;;13.23;94.00;99897.13;5038819;28;20145;-74
2021/05/12 03:59:55;;;;;;;10.45;4.72;;;;;;;13.37;93.65;99905.63;5047007;28;20088;-75
2021/05/12 04:02:22;;;;;;;5.38;4.22;;;;;;;13.36;92.81;99897.81;5036888;28;20052;-72
2021/05/12 04:04:53;;;;;;;8.30;5.10;;;;;;;13.47;91.30;99897.78;5019517;28;20515;-73
2021/05/12 04:07:21;;;;;;;6.50;3.75;;;;;;;13.43;90.90;99902.47;5058321;28;20052;-75
2021/05/12 04:09:49;;;;;;;9.68;3.40;;;;;;;13.47;90.57;99903.06;5038010;28;20065;-74
2021/05/12 04:12:16;;;;;;;9.80;3.80;;;;;;;13.51;90.28;99907.16;5053451;28;20136;-73
2021/05/12 04:14:43;;;;;;;8.43;3.72;;;;;;;13.61;89.25;99910.69;5021809;28;20067;-72
2021/05/12 04:17:10;;;;;;;7.95;3.33;;;;;;;13.56;89.61;99909.41;5030538;28;20128;-72
2021/05/12 04:19:37;;;;;;;6.25;3.47;;;;;;;13.57;89.45;99896.06;5052366;28;20127;-72
2021/05/12 04:22:05;;;;;;;10.48;4.00;;;;;;;13.52;90.01;99890.31;5047464;28;20152;-73
2021/05/12 04:24:32;;;;;;;6.35;3.38;;;;;;;13.51;90.09;99891.28;5052580;28;20050;-72
2021/05/12 04:26:59;;;;;;;6.47;3.45;;;;;;;13.65;89.21;99900.72;5026941;28;20080;-72
2021/05/12 04:29:26;;;;;;;11.77;4.22;;;;;;;13.72;88.94;99893.09;5034342;28;20128;-74
2021/05/12 04:31:54;;;;;;;6.22;3.35;;;;;;;13.72;88.67;99896.56;5040103;28;20136;-74
2021/05/12 04:34:21;;;;;;;10.32;4.28;;;;;;;13.87;87.91;99902.41;5054485;28;20602;-74
2021/05/12 04:36:48;;;;;;;7.38;3.80;;;;;;;13.75;88.66;99922.78;5035561;28;20053;-69
2021/05/12 04:39:16;;;;;;;6.78;4.05;;;;;;;13.82;88.14;99925.72;5055937;28;20136;-68
2021/05/12 04:41:43;;;;;;;6.55;4.22;;;;;;;13.82;88.34;99925.72;5050097;28;20050;-70
2021/05/12 04:44:11;;;;;;;9.35;4.30;;;;;;;13.72;88.04;99917.72;5055592;28;20063;-70
2021/05/12 04:46:40;;;;;;;7.78;4.03;;;;;;;13.79;88.55;99920.72;5051297;28;20056;-69
2021/05/12 04:49:08;;;;;;;6.65;3.70;;;;;;;13.99;87.43;99934.91;5030532;28;20063;-68
2021/05/12 04:51:36;;;;;;;7.25;3.55;;;;;;;13.93;87.12;99949.50;5041728;28;20417;-69
2021/05/12 04:54:04;;;;;;;7.38;3.70;;;;;;;13.84;87.84;99947.63;5005016;28;20514;-69
2021/05/12 04:56:35;;;;;;;7.63;3.83;;;;;;;14.16;86.57;99953.69;5052248;28;20569;-69
2021/05/12 04:59:02;;;;;;;10.57;4.40;;;;;;;13.94;86.32;99957.31;5040822;28;20053;-70
2021/05/12 05:01:30;;;;;;;8.68;3.67;;;;;;;14.07;86.44;99966.88;5048952;28;20084;-69
2021/05/12 05:03:59;;;;;;;11.13;3.97;;;;;;;14.04;86.33;99962.66;5026409;28;20685;-68
2021/05/12 05:06:27;;;;;;;9.27;4.45;;;;;;;14.30;85.36;99960.47;5047110;28;20052;-69
2021/05/12 05:08:54;;;;;;;5.88;3.78;;;;;;;14.33;84.74;99964.69;5023432;28;20196;-69
2021/05/12 05:11:21;;;;;;;11.90;4.57;;;;;;;14.33;84.49;99976.09;5043767;28;20472;-69
2021/05/12 05:13:48;;;;;;;10.98;3.90;;;;;;;14.40;84.22;99979.88;5048364;28;20149;-68
2021/05/12 05:16:16;;;;;;;7.97;3.78;;;;;;;14.41;83.60;99986.06;5038233;28;20062;-69
2021/05/12 05:18:45;;;;;;;7.15;4.15;;;;;;;14.31;84.17;99985.97;5038975;28;20059;-70
2021/05/12 05:21:12;;;;;;;9.10;4.63;;;;;;;14.36;84.03;99977.63;5047013;28;20049;-68
2021/05/12 05:23:41;;;;;;;9.98;4.50;;;;;;;14.39;83.91;99980.03;5051800;28;20163;-70
2021/05/12 05:26:08;;;;;;;9.73;5.63;;;;;;;14.39;83.55;99974.75;5041023;28;20581;-70
2021/05/12 05:28:35;;;;;;;7.95;5.18;;;;;;;13.88;85.23;99967.56;5050499;28;20055;-69
2021/05/12 05:31:02;;;;;;;9.35;4.55;;;;;;;14.11;85.44;99963.00;5045350;28;20231;-77
2021/05/12 05:33:30;;;;;;;8.73;5.72;;;;;;;13.77;85.58;99975.53;5055953;28;20067;-67
2021/05/12 05:35:57;;;;;;;10.70;5.18;;;;;;;13.64;86.40;99992.44;5027824;28;20081;-72
2021/05/12 05:38:24;;;;;;;9.52;5.43;;;;;;;13.63;87.00;99984.63;5054997;28;20048;-72
2021/05/12 05:40:51;;;;;;;8.38;4.22;;;;;;;13.67;86.33;99989.53;5045482;28;20129;-77
2021/05/12 05:43:19;;;;;;;11.73;4.35;;;;;;;13.56;86.98;99989.59;5053482;28;20072;-84
2021/05/12 05:45:46;;;;;;;10.68;4.70;;;;;;;13.82;86.02;99992.72;5047350;28;20341;-73
2021/05/12 05:48:13;;;;;;;8.82;4.47;;;;;;;14.14;83.90;99992.72;5038466;28;20072;-74
2021/05/12 05:50:41;;;;;;;10.10;4.43;;;;;;;14.15;83.32;99989.09;5045530;28;20057;-72
2021/05/12 05:53:08;;;;;;;7.85;4.07;;;;;;;14.35;82.62;99986.56;5030829;28;20045;-73
2021/05/12 05:55:35;;;;;;;7.10;4.22;;;;;;;14.48;81.72;99984.56;5045410;28;20056;-86
2021/05/12 05:58:02;;;;;;;9.40;4.93;;;;;;;14.25;83.18;99993.59;5018130;28;20143;-71
2021/05/12 06:00:30;;;;;;;9.18;4.53;;;;;;;14.35;82.52;100000.63;5045600;28;20159;-72
2021/05/12 06:02:57;;;;;;;6.50;3.85;;;;;;;14.43;81.90;99994.69;5052754;28;20047;-71
2021/05/12 06:05:24;;;;;;;9.48;3.78;;;;;;;14.27;82.19;99996.94;5029568;28;20076;-69
2021/05/12 06:07:51;;;;;;;14.35;4.47;;;;;;;14.51;81.00;99991.44;5048682;28;20049;-70
2021/05/12 06:10:19;;;;;;;8.77;4.78;;;;;;;14.36;81.84;99991.75;5049209;28;20115;-71
2021/05/12 06:12:46;;;;;;;11.30;6.30;;;;;;;14.35;81.74;99978.63;5052186;28;20053;-70
2021/05/12 06:15:19;;;;;;;11.43;5.15;;;;;;;14.43;82.06;99970.84;5038200;28;20149;-73
2021/05/12 06:17:51;;;;;;;6.35;4.97;;;;;;;14.51;81.43;99971.09;5048633;28;20044;-73
2021/05/12 06:20:19;;;;;;;7.57;4.50;;;;;;;14.31;81.52;99980.66;5047512;28;20049;-75
2021/05/12 06:22:46;;;;;;;8.15;4.35;;;;;;;14.46;81.15;99977.72;5026300;28;20082;-75
2021/05/12 06:25:13;;;;;;;7.43;3.80;;;;;;;14.69;80.26;99976.59;5043667;28;20083;-74
2021/05/12 06:27:42;;;;;;;13.00;5.75;;;;;;;15.01;78.90;99978.25;5031570;28;20052;-74
2021/05/12 06:30:10;;;;;;;9.27;4.10;;;;;;;15.11;77.82;99985.25;5044876;28;20068;-73
2021/05/12 06:32:37;;;;;;;7.63;4.72;;;;;;;14.66;79.41;100001.53;5044854;28;20164;-74
2021/05/12 06:35:05;;;;;;;10.10;5.45;;;;;;;14.60;80.33;99999.44;5044360;28;20188;-72
2021/05/12 06:37:32;;;;;;;8.77;5.00;;;;;;;14.46;81.39;99999.75;5054802;28;20071;-71
2021/05/12 06:39:59;;;;;;;9.05;5.32;;;;;;;14.48;81.25;100005.75;5053326;28;20514;-70
2021/05/12 06:42:26;;;;;;;7.57;5.63;;;;;;;14.15;83.17;100001.50;5034299;28;20061;-71
2021/05/12 06:44:54;;;;;;;9.05;5.60;;;;;;;14.31;83.08;100012.44;5054509;28;20045;-72
2021/05/12 06:47:21;;;;;;;10.23;6.18;;;;;;;14.25;83.40;100009.50;5051284;28;20052;-71
2021/05/12 06:49:48;;;;;;;7.95;5.32;;;;;;;14.62;82.20;100009.88;5033929;28;20447;-71
2021/05/12 06:52:15;;;;;;;12.18;5.55;;;;;;;14.63;81.83;100012.41;5044318;28;20160;-71
2021/05/12 06:54:43;;;;;;;9.60;5.75;;;;;;;14.63;82.61;100012.41;5020084;28;20143;-72
2021/05/12 06:57:10;;;;;;;11.73;8.07;;;;;;;14.67;82.27;100016.47;5057222;28;20227;-78
2021/05/12 06:59:37;;;;;;;17.45;9.48;;;;;;;14.92;81.81;100012.53;5033835;28;20132;-79
2021/05/12 07:02:04;;;;;;;14.80;8.80;;;;;;;15.11;79.75;100008.28;5034735;28;20072;-79
2021/05/12 07:04:32;;;;;;;13.85;8.60;;;;;;;15.00;78.79;100013.69;5032340;28;20045;-79
2021/05/12 07:06:59;;;;;;;15.35;8.00;;;;;;;14.79;81.37;100017.22;5028081;28;20110;-80
2021/05/12 07:09:26;;;;;;;15.20;7.63;;;;;;;15.23;78.89;100001.06;5054206;28;20077;-75
2021/05/12 07:11:53;;;;;;;13.52;7.25;;;;;;;15.01;78.15;99997.66;5029533;28;20410;-74
2021/05/12 07:14:21;;;;;;;12.05;6.57;;;;;;;14.97;78.81;100001.53;5057048;28;20068;-76
2021/05/12 07:16:52;;;;;;;13.50;7.55;;;;;;;15.22;77.72;100012.63;5056324;28;20079;-74
2021/05/12 07:19:20;;;;;;;15.07;7.97;;;;;;;14.92;78.96;100009.91;5057503;28;20048;-75
2021/05/12 07:21:47;;;;;;;13.68;7.22;;;;;;;14.75;80.08;100014.97;5036605;28;20063;-76
2021/05/12 07:24:14;;;;;;;15.77;8.20;;;;;;;14.98;79.00;100019.13;5044179;28;20072;-75
2021/05/12 07:26:42;;;;;;;13.52;9.27;;;;;;;15.09;78.49;100029.63;5057576;28;20045;-76
2021/05/12 07:29:09;;;;;;;17.67;10.30;;;;;;;15.29;77.80;100033.19;5047787;28;21027;-78
2021/05/12 07:31:36;;;;;;;13.52;8.82;;;;;;;15.08;78.23;100038.53;5044425;28;20041;-78
2021/05/12 07:34:06;;;;;;;10.43;7.72;;;;;;;15.29;77.12;100024.41;5026512;28;20075;-76
2021/05/12 07:36:34;;;;;;;10.55;7.43;;;;;;;14.97;77.63;100043.94;5035688;28;20052;-74
2021/05/12 07:39:01;;;;;;;9.07;7.38;;;;;;;15.26;77.08;100043.22;5053239;28;20226;-74
2021/05/12 07:41:29;;;;;;;10.27;6.88;;;;;;;15.33;76.04;100044.38;5054546;28;20060;-77
2021/05/12 07:43:56;;;;;;;9.93;6.55;;;;;;;15.50;75.52;100035.75;5005211;28;20141;-75
2021/05/12 07:46:25;;;;;;;16.00;7.90;;;;;;;14.54;79.47;100036.19;5051064;28;20521;-74
2021/05/12 07:48:53;;;;;;;12.32;8.32;;;;;;;14.53;79.62;100037.16;5028684;28;20068;-74
2021/05/12 07:51:21;;;;;;;10.68;8.43;;;;;;;14.63;78.92;100033.63;5047190;28;20057;-74
2021/05/12 07:53:49;;;;;;;11.90;7.60;;;;;;;14.54;79.71;100026.41;5050357;28;20041;-76
2021/05/12 07:56:16;;;;;;;14.98;9.43;;;;;;;14.82;79.26;100026.75;5025181;28;20049;-76
2021/05/12 07:58:44;;;;;;;10.88;8.50;;;;;;;15.08;77.79;100027.94;5037976;28;20141;-74
2021/05/12 08:01:30;;;;;;;11.48;8.43;;;;;;;14.97;77.98;100029.88;5074632;28;20064;-75
2021/05/12 08:03:58;;;;;;;9.80;8.27;;;;;;;15.22;77.24;100026.75;5077420;28;20056;-77
2021/05/12 08:06:25;;;;;;;16.38;9.02;;;;;;;15.36;76.05;100025.53;5056255;28;20080;-75
2021/05/12 08:08:52;;;;;;;12.55;8.98;;;;;;;15.61;75.03;100027.66;5057197;28;20140;-76
2021/05/12 08:11:21;;;;;;;12.48;10.07;;;;;;;15.67;74.94;100015.72;5059624;28;20132;-73
2021/05/12 08:13:49;;;;;;;11.82;9.38;;;;;;;15.72;74.85;100013.50;5041943;28;20132;-76
2021/05/12 08:16:16;;;;;;;15.98;10.35;;;;;;;15.58;75.14;100016.50;5045463;28;20796;-75
2021/05/12 08:18:44;;;;;;;15.73;12.43;;;;;;;15.15;77.02;100021.13;5056218;28;20067;-74
2021/05/12 08:21:11;;;;;;;15.23;11.20;;;;;;;15.34;77.31;100032.78;5058680;28;20049;-74
2021/05/12 08:23:38;;;;;;;18.85;12.00;;;;;;;15.01;77.82;100037.41;5047904;28;20091;-73
2021/05/12 08:26:06;;;;;;;16.27;11.75;;;;;;;14.97;77.89;100043.13;5018068;28;20090;-74
2021/05/12 08:28:33;;;;;;;14.63;10.88;;;;;;;15.23;77.39;100048.81;5049301;28;20144;-74
2021/05/12 08:31:00;;;;;;;15.20;11.90;;;;;;;15.07;77.37;100044.81;5051199;28;20687;-72
2021/05/12 08:33:27;;;;;;;14.90;11.70;;;;;;;15.13;77.78;100051.41;5052953;28;20084;-73
2021/05/12 08:35:55;;;;;;;19.55;13.13;;;;;;;15.31;76.86;100051.59;5053222;28;20068;-74
2021/05/12 08:38:25;;;;;;;19.02;13.70;;;;;;;15.37;76.75;100049.25;5023189;28;20473;-74
2021/05/12 08:40:54;;;;;;;22.33;12.60;;;;;;;15.32;77.00;100050.66;5053067;28;20394;-73
2021/05/12 08:43:21;;;;;;;20.02;14.95;;;;;;;15.15;77.76;100044.16;5057475;28;20049;-74
2021/05/12 08:45:48;;;;;;;19.40;13.77;;;;;;;15.10;77.71;100052.53;5036250;28;20581;-75
2021/05/12 08:48:17;;;;;;;24.48;14.75;;;;;;;15.10;78.01;100063.13;5028178;28;20553;-73
2021/05/12 08:50:46;;;;;;;19.25;14.02;;;;;;;14.69;79.78;100062.22;5037317;28;20140;-75
2021/05/12 08:53:13;;;;;;;22.67;15.20;;;;;;;14.69;79.71;100064.88;5053363;28;20125;-74
2021/05/12 08:55:40;;;;;;;24.77;15.23;;;;;;;14.57;80.56;100059.75;5021430;28;20060;-74
2021/05/12 08:58:07;;;;;;;19.88;15.15;;;;;;;14.64;80.87;100055.66;5056526;28;20097;-75
2021/05/12 09:00:35;;;;;;;21.45;13.88;;;;;;;14.98;79.86;100058.88;5056838;28;20585;-74
2021/05/12 09:03:03;;;;;;;21.17;14.00;;;;;;;15.09;79.30;100064.09;5034067;28;20127;-74
2021/05/12 09:05:31;;;;;;;28.70;14.38;;;;;;;15.24;78.64;100066.38;5025829;28;20169;-74
2021/05/12 09:07:58;;;;;;;18.30;13.35;;;;;;;15.91;75.63;100057.78;5004116;28;20487;-76
2021/05/12 09:10:26;;;;;;;19.65;13.48;;;;;;;15.45;76.55;100057.41;5059359;28;20064;-73
2021/05/12 09:12:56;;;;;;;17.83;13.20;;;;;;;15.52;77.34;100057.69;5063391;28;20106;-73
2021/05/12 09:15:26;;;;;;;19.70;14.57;;;;;;;15.74;75.60;100043.38;5049395;28;20136;-74
2021/05/12 09:17:56;;;;;;;22.45;16.63;;;;;;;15.82;75.32;100046.19;5065306;28;20040;-73
2021/05/12 09:20:37;;;;;;;20.85;15.40;;;;;;;15.68;75.98;100055.38;5064358;28;20099;-74
2021/05/12 09:23:09;;;;;;;23.08;14.40;;;;;;;16.28;73.49;100049.94;5052921;28;20753;-74
2021/05/12 09:25:38;;;;;;;19.40;13.90;;;;;;;16.55;72.43;100040.41;5039092;28;20086;-73
2021/05/12 09:28:14;;;;;;;27.88;15.10;;;;;;;16.54;72.40;100041.41;5066627;28;20049;-75
2021/05/12 09:30:43;;;;;;;19.27;14.73;;;;;;;16.53;72.11;100053.03;5057575;28;20094;-74
2021/05/12 09:33:25;;;;;;;21.20;15.52;;;;;;;15.73;75.19;100054.97;5058829;28;20481;-73
2021/05/12 09:35:53;;;;;;;22.10;16.45;;;;;;;15.27;77.32;100058.19;5036885;28;20083;-73
2021/05/12 09:38:25;;;;;;;22.58;15.18;;;;;;;15.44;77.24;100044.25;5010512;28;20569;-72
2021/05/12 09:41:18;;;;;;;22.08;14.40;;;;;;;15.34;77.92;100048.69;5023405;28;20059;-73
2021/05/12 09:43:50;;;;;;;21.20;14.85;;;;;;;15.81;75.56;100041.84;5044942;28;20148;-73
2021/05/12 09:46:25;;;;;;;24.05;14.35;;;;;;;15.77;75.81;100029.84;5052619;28;20048;-75
2021/05/12 09:48:58;;;;;;;25.88;14.70;;;;;;;15.98;74.97;100032.34;5034326;28;20050;-74
2021/05/12 09:51:27;;;;;;;19.98;14.88;;;;;;;16.13;73.98;100036.28;5051286;28;20060;-74
2021/05/12 09:54:10;;;;;;;20.02;15.48;;;;;;;15.79;75.68;100019.06;5048894;28;20061;-75
2021/05/12 09:56:49;;;;;;;22.63;15.65;;;;;;;15.81;75.02;100020.63;5052114;28;20055;-74
2021/05/12 09:59:22;;;;;;;22.80;15.48;;;;;;;15.75;76.02;100015.00;5032235;28;20084;-75
2021/05/12 10:01:55;;;;;;;19.98;14.93;;;;;;;15.62;76.41;100021.38;5019400;28;20044;-73
2021/05/12 10:04:33;;;;;;;22.83;16.87;;;;;;;15.67;76.60;100015.72;5030239;28;20052;-74
2021/05/12 10:07:22;;;;;;;25.10;18.50;;;;;;;15.49;77.58;100004.91;5015988;28;20400;-75
2021/05/12 10:09:54;;;;;;;23.30;16.13;;;;;;;15.78;76.21;100006.78;5034516;28;20071;-73
2021/05/12 10:12:29;;;;;;;26.63;17.05;;;;;;;15.85;76.34;100014.06;5045123;28;20582;-74
2021/05/12 10:14:58;;;;;;;23.20;17.48;;;;;;;16.34;74.45;100022.81;5052515;28;20044;-76
2021/05/12 10:17:26;;;;;;;26.00;17.88;;;;;;;16.42;73.55;100033.56;5034494;28;20533;-73
2021/05/12 10:19:55;;;;;;;26.42;18.75;;;;;;;16.26;73.82;100021.88;5034285;28;20047;-75
2021/05/12 10:22:22;;;;;;;27.00;18.48;;;;;;;15.94;75.45;100030.97;5046141;28;20155;-74
2021/05/12 10:24:52;;;;;;;22.55;16.40;;;;;;;15.68;76.85;100020.03;5047350;28;20625;-74
2021/05/12 10:27:23;;;;;;;24.92;18.45;;;;;;;15.91;77.05;100028.59;5056445;28;20143;-74
2021/05/12 10:29:52;;;;;;;23.20;17.05;;;;;;;15.69;77.00;100024.38;5053271;28;20056;-73
2021/05/12 10:32:35;;;;;;;23.80;18.45;;;;;;;15.59;77.77;100020.84;5058210;28;20545;-73
2021/05/12 10:35:06;;;;;;;25.75;17.98;;;;;;;16.03;76.48;100030.13;5025290;28;20051;-74
2021/05/12 10:37:38;;;;;;;22.30;17.20;;;;;;;16.39;74.56;100035.66;5054130;28;20075;-74
2021/05/12 10:40:24;;;;;;;25.55;18.33;;;;;;;15.99;74.88;100030.56;5047572;28;20035;-73
2021/05/12 10:43:22;;;;;;;28.48;18.95;;;;;;;16.18;75.53;100026.06;5053839;28;20048;-72
2021/05/12 10:48:45;;;;;;;24.58;18.90;;;;;;;15.47;77.89;100024.56;5050362;28;20081;-74
2021/05/12 10:51:26;;;;;;;27.60;18.88;;;;;;;16.24;75.67;100034.44;5049260;28;20052;-73
2021/05/12 10:53:55;;;;;;;26.65;18.58;;;;;;;16.74;72.91;100029.75;5046104;28;20447;-73
2021/05/12 10:56:32;;;;;;;26.00;19.38;;;;;;;16.51;73.37;100047.81;5036552;28;20645;-74
2021/05/12 10:59:05;;;;;;;30.95;18.27;;;;;;;16.08;75.38;100046.47;5026920;28;20053;-74
2021/05/12 11:01:34;;;;;;;23.13;18.40;;;;;;;16.56;73.99;100042.91;5031513;28;20537;-74
2021/05/12 11:04:06;;;;;;;24.88;18.23;;;;;;;16.65;73.39;100041.22;5044397;28;20248;-74
2021/05/12 11:06:39;;;;;;;28.00;19.70;;;;;;;16.75;72.17;100035.91;5030804;28;20928;-74
2021/05/12 11:09:13;;;;;;;21.92;17.42;;;;;;;17.02;71.80;100035.97;5061771;28;20052;-74
2021/05/12 11:11:44;;;;;;;22.73;17.55;;;;;;;17.50;70.12;100042.03;5045561;28;20687;-73
2021/05/12 11:14:35;;;;;;;26.98;18.45;;;;;;;17.58;68.96;100040.31;5057830;28;20056;-73
2021/05/12 11:17:13;;;;;;;24.98;18.73;;;;;;;17.35;69.94;100045.19;5030080;28;20060;-73
2021/05/12 11:19:40;;;;;;;26.23;18.25;;;;;;;17.15;70.67;100051.56;5050693;28;20052;-73
2021/05/12 11:25:11;;;;;;;24.25;17.27;;;;;;;17.06;70.83;100063.09;5047727;28;20128;-75
2021/05/12 11:33:36;;;;;;;26.63;16.92;;;;;;;16.79;72.28;100058.56;5035906;28;20054;-76
2021/05/12 11:36:14;;;;;;;27.77;18.58;;;;;;;16.76;72.32;100061.53;5048196;28;20045;-73
2021/05/12 11:38:42;;;;;;;22.85;17.67;;;;;;;16.96;71.82;100063.13;5041156;28;20131;-73